sensor_id;sensor_type;location;lat;lon;timestamp;P1;durP1;ratioP1;P2;durP2;ratioP2
8803;SDS011;4438;50.890;4.726;2022-10-22T00:00:21;5.00;;;3.13;;
8803;SDS011;4438;50.890;4.726;2022-10-22T00:02:48;5.73;;;3.40;;
8803;SDS011;4438;50.890;4.726;2022-10-22T00:05:14;7.20;;;3.90;;
8803;SDS011;4438;50.890;4.726;2022-10-22T00:07:40;6.53;;;3.83;;
8803;SDS011;4438;50.890;4.726;2022-10-22T00:10:07;9.57;;;3.90;;
8803;SDS011;4438;50.890;4.726;2022-10-22T00:12:33;5.47;;;3.30;;
8803;SDS011;4438;50.890;4.726;2022-10-22T00:14:59;4.23;;;3.07;;
8803;SDS011;4438;50.890;4.726;2022-10-22T00:17:25;5.83;;;3.60;;
8803;SDS011;4438;50.890;4.726;2022-10-22T00:19:51;4.43;;;3.30;;
8803;SDS011;4438;50.890;4.726;2022-10-22T00:22:17;6.37;;;3.70;;
8803;SDS011;4438;50.890;4.726;2022-10-22T00:24:44;5.23;;;3.37;;
8803;SDS011;4438;50.890;4.726;2022-10-22T00:27:10;6.13;;;3.50;;
8803;SDS011;4438;50.890;4.726;2022-10-22T00:29:36;3.80;;;3.40;;
8803;SDS011;4438;50.890;4.726;2022-10-22T00:32:03;4.70;;;3.27;;
8803;SDS011;4438;50.890;4.726;2022-10-22T00:34:29;4.80;;;3.40;;
8803;SDS011;4438;50.890;4.726;2022-10-22T00:36:55;6.60;;;3.83;;
8803;SDS011;4438;50.890;4.726;2022-10-22T00:39:22;7.53;;;3.90;;
8803;SDS011;4438;50.890;4.726;2022-10-22T00:41:49;6.33;;;3.60;;
8803;SDS011;4438;50.890;4.726;2022-10-22T00:47:00;8.30;;;3.70;;
8803;SDS011;4438;50.890;4.726;2022-10-22T00:49:26;6.77;;;3.30;;
8803;SDS011;4438;50.890;4.726;2022-10-22T00:51:53;5.10;;;3.47;;
8803;SDS011;4438;50.890;4.726;2022-10-22T00:54:19;6.03;;;3.60;;
8803;SDS011;4438;50.890;4.726;2022-10-22T00:56:45;5.87;;;3.37;;
8803;SDS011;4438;50.890;4.726;2022-10-22T00:59:13;5.50;;;3.70;;
8803;SDS011;4438;50.890;4.726;2022-10-22T01:01:41;7.10;;;3.27;;
8803;SDS011;4438;50.890;4.726;2022-10-22T01:04:07;3.87;;;3.13;;
8803;SDS011;4438;50.890;4.726;2022-10-22T01:06:33;6.20;;;3.00;;
8803;SDS011;4438;50.890;4.726;2022-10-22T01:09:21;4.40;;;3.40;;
8803;SDS011;4438;50.890;4.726;2022-10-22T01:11:52;7.17;;;3.60;;
8803;SDS011;4438;50.890;4.726;2022-10-22T01:19:31;8.23;;;3.60;;
8803;SDS011;4438;50.890;4.726;2022-10-22T01:22:06;6.20;;;3.73;;
8803;SDS011;4438;50.890;4.726;2022-10-22T01:24:38;4.90;;;3.23;;
8803;SDS011;4438;50.890;4.726;2022-10-22T01:27:18;5.80;;;3.73;;
8803;SDS011;4438;50.890;4.726;2022-10-22T01:29:52;9.87;;;3.83;;
8803;SDS011;4438;50.890;4.726;2022-10-22T01:32:21;6.37;;;3.70;;
8803;SDS011;4438;50.890;4.726;2022-10-22T01:35:09;5.43;;;3.57;;
8803;SDS011;4438;50.890;4.726;2022-10-22T01:37:36;8.80;;;3.70;;
8803;SDS011;4438;50.890;4.726;2022-10-22T01:40:03;6.77;;;3.60;;
8803;SDS011;4438;50.890;4.726;2022-10-22T01:42:30;7.80;;;3.60;;
8803;SDS011;4438;50.890;4.726;2022-10-22T01:44:56;5.63;;;3.40;;
8803;SDS011;4438;50.890;4.726;2022-10-22T01:50:01;6.30;;;3.33;;
8803;SDS011;4438;50.890;4.726;2022-10-22T01:52:37;6.20;;;3.57;;
8803;SDS011;4438;50.890;4.726;2022-10-22T01:55:23;6.97;;;3.50;;
8803;SDS011;4438;50.890;4.726;2022-10-22T02:00:26;6.47;;;3.40;;
8803;SDS011;4438;50.890;4.726;2022-10-22T02:05:20;6.27;;;3.47;;
8803;SDS011;4438;50.890;4.726;2022-10-22T02:07:54;5.30;;;3.30;;
8803;SDS011;4438;50.890;4.726;2022-10-22T02:10:22;7.73;;;3.30;;
8803;SDS011;4438;50.890;4.726;2022-10-22T02:12:49;9.37;;;3.97;;
8803;SDS011;4438;50.890;4.726;2022-10-22T02:15:17;6.90;;;3.60;;
8803;SDS011;4438;50.890;4.726;2022-10-22T02:17:44;6.13;;;3.40;;
8803;SDS011;4438;50.890;4.726;2022-10-22T02:20:17;5.90;;;3.80;;
8803;SDS011;4438;50.890;4.726;2022-10-22T02:22:44;6.07;;;3.50;;
8803;SDS011;4438;50.890;4.726;2022-10-22T02:25:11;5.77;;;3.60;;
8803;SDS011;4438;50.890;4.726;2022-10-22T02:27:42;6.70;;;3.60;;
8803;SDS011;4438;50.890;4.726;2022-10-22T02:30:13;5.10;;;3.67;;
8803;SDS011;4438;50.890;4.726;2022-10-22T02:32:44;10.33;;;4.17;;
8803;SDS011;4438;50.890;4.726;2022-10-22T02:35:16;4.67;;;3.47;;
8803;SDS011;4438;50.890;4.726;2022-10-22T02:37:43;5.03;;;3.30;;
8803;SDS011;4438;50.890;4.726;2022-10-22T02:40:09;6.10;;;3.40;;
8803;SDS011;4438;50.890;4.726;2022-10-22T02:42:36;7.30;;;3.40;;
8803;SDS011;4438;50.890;4.726;2022-10-22T02:45:03;6.40;;;3.10;;
8803;SDS011;4438;50.890;4.726;2022-10-22T02:47:30;4.53;;;3.30;;
8803;SDS011;4438;50.890;4.726;2022-10-22T02:49:56;4.67;;;3.30;;
8803;SDS011;4438;50.890;4.726;2022-10-22T02:52:22;9.83;;;3.70;;
8803;SDS011;4438;50.890;4.726;2022-10-22T02:54:48;5.27;;;3.50;;
8803;SDS011;4438;50.890;4.726;2022-10-22T02:57:14;7.90;;;3.40;;
8803;SDS011;4438;50.890;4.726;2022-10-22T02:59:40;9.37;;;3.43;;
8803;SDS011;4438;50.890;4.726;2022-10-22T03:02:06;5.00;;;3.30;;
8803;SDS011;4438;50.890;4.726;2022-10-22T03:04:32;6.17;;;3.10;;
8803;SDS011;4438;50.890;4.726;2022-10-22T03:06:58;4.20;;;2.87;;
8803;SDS011;4438;50.890;4.726;2022-10-22T03:09:25;8.20;;;3.50;;
8803;SDS011;4438;50.890;4.726;2022-10-22T03:11:51;4.30;;;2.97;;
8803;SDS011;4438;50.890;4.726;2022-10-22T03:14:17;5.63;;;3.20;;
8803;SDS011;4438;50.890;4.726;2022-10-22T03:16:43;5.97;;;3.47;;
8803;SDS011;4438;50.890;4.726;2022-10-22T03:19:09;5.83;;;3.67;;
8803;SDS011;4438;50.890;4.726;2022-10-22T03:21:40;5.93;;;3.30;;
8803;SDS011;4438;50.890;4.726;2022-10-22T03:24:08;8.20;;;3.67;;
8803;SDS011;4438;50.890;4.726;2022-10-22T03:26:35;8.40;;;3.53;;
8803;SDS011;4438;50.890;4.726;2022-10-22T03:29:02;5.77;;;2.97;;
8803;SDS011;4438;50.890;4.726;2022-10-22T03:31:29;7.77;;;3.30;;
8803;SDS011;4438;50.890;4.726;2022-10-22T03:33:55;8.57;;;3.53;;
8803;SDS011;4438;50.890;4.726;2022-10-22T03:36:21;6.83;;;3.53;;
8803;SDS011;4438;50.890;4.726;2022-10-22T03:38:47;6.40;;;3.40;;
8803;SDS011;4438;50.890;4.726;2022-10-22T03:41:13;6.40;;;3.40;;
8803;SDS011;4438;50.890;4.726;2022-10-22T03:43:39;6.13;;;3.27;;
8803;SDS011;4438;50.890;4.726;2022-10-22T03:46:06;3.63;;;3.10;;
8803;SDS011;4438;50.890;4.726;2022-10-22T03:48:32;7.20;;;3.00;;
8803;SDS011;4438;50.890;4.726;2022-10-22T03:50:58;8.33;;;3.60;;
8803;SDS011;4438;50.890;4.726;2022-10-22T03:53:24;4.60;;;2.80;;
8803;SDS011;4438;50.890;4.726;2022-10-22T03:55:50;5.93;;;3.57;;
8803;SDS011;4438;50.890;4.726;2022-10-22T03:58:16;8.50;;;3.10;;
8803;SDS011;4438;50.890;4.726;2022-10-22T04:00:42;6.93;;;3.10;;
8803;SDS011;4438;50.890;4.726;2022-10-22T04:03:08;4.73;;;2.90;;
8803;SDS011;4438;50.890;4.726;2022-10-22T04:05:34;4.67;;;3.00;;
8803;SDS011;4438;50.890;4.726;2022-10-22T04:08:00;8.13;;;3.07;;
8803;SDS011;4438;50.890;4.726;2022-10-22T04:10:26;8.03;;;3.33;;
8803;SDS011;4438;50.890;4.726;2022-10-22T04:12:52;6.50;;;3.23;;
8803;SDS011;4438;50.890;4.726;2022-10-22T04:15:18;7.63;;;3.17;;
8803;SDS011;4438;50.890;4.726;2022-10-22T04:17:44;8.00;;;2.87;;
8803;SDS011;4438;50.890;4.726;2022-10-22T04:20:11;5.47;;;3.30;;
8803;SDS011;4438;50.890;4.726;2022-10-22T04:22:37;6.00;;;3.13;;
8803;SDS011;4438;50.890;4.726;2022-10-22T04:25:03;5.37;;;2.93;;
8803;SDS011;4438;50.890;4.726;2022-10-22T04:27:30;4.83;;;3.00;;
8803;SDS011;4438;50.890;4.726;2022-10-22T04:29:56;6.20;;;3.00;;
8803;SDS011;4438;50.890;4.726;2022-10-22T04:32:23;6.77;;;3.20;;
8803;SDS011;4438;50.890;4.726;2022-10-22T04:34:49;6.10;;;3.10;;
8803;SDS011;4438;50.890;4.726;2022-10-22T04:37:15;8.17;;;3.33;;
8803;SDS011;4438;50.890;4.726;2022-10-22T04:39:41;7.10;;;2.60;;
8803;SDS011;4438;50.890;4.726;2022-10-22T04:42:07;6.10;;;2.90;;
8803;SDS011;4438;50.890;4.726;2022-10-22T04:44:33;4.83;;;3.00;;
8803;SDS011;4438;50.890;4.726;2022-10-22T04:46:59;4.83;;;2.97;;
8803;SDS011;4438;50.890;4.726;2022-10-22T04:49:26;5.80;;;3.20;;
8803;SDS011;4438;50.890;4.726;2022-10-22T04:51:52;4.83;;;2.70;;
8803;SDS011;4438;50.890;4.726;2022-10-22T04:54:18;5.67;;;2.83;;
8803;SDS011;4438;50.890;4.726;2022-10-22T04:56:44;7.60;;;3.00;;
8803;SDS011;4438;50.890;4.726;2022-10-22T04:59:10;5.87;;;2.90;;
8803;SDS011;4438;50.890;4.726;2022-10-22T05:01:37;4.87;;;2.63;;
8803;SDS011;4438;50.890;4.726;2022-10-22T05:04:04;6.57;;;3.10;;
8803;SDS011;4438;50.890;4.726;2022-10-22T05:06:31;4.87;;;2.60;;
8803;SDS011;4438;50.890;4.726;2022-10-22T05:08:58;7.93;;;3.13;;
8803;SDS011;4438;50.890;4.726;2022-10-22T05:11:26;4.67;;;2.80;;
8803;SDS011;4438;50.890;4.726;2022-10-22T05:13:54;4.27;;;2.30;;
8803;SDS011;4438;50.890;4.726;2022-10-22T05:16:20;6.30;;;3.13;;
8803;SDS011;4438;50.890;4.726;2022-10-22T05:18:46;9.53;;;3.00;;
8803;SDS011;4438;50.890;4.726;2022-10-22T05:21:14;7.63;;;2.70;;
8803;SDS011;4438;50.890;4.726;2022-10-22T05:23:41;6.43;;;2.60;;
8803;SDS011;4438;50.890;4.726;2022-10-22T05:26:08;9.90;;;3.03;;
8803;SDS011;4438;50.890;4.726;2022-10-22T05:28:35;7.33;;;2.70;;
8803;SDS011;4438;50.890;4.726;2022-10-22T05:31:01;6.83;;;2.77;;
8803;SDS011;4438;50.890;4.726;2022-10-22T05:33:28;4.70;;;2.37;;
8803;SDS011;4438;50.890;4.726;2022-10-22T05:35:54;6.73;;;2.60;;
8803;SDS011;4438;50.890;4.726;2022-10-22T05:38:20;7.00;;;2.93;;
8803;SDS011;4438;50.890;4.726;2022-10-22T05:40:46;5.87;;;2.57;;
8803;SDS011;4438;50.890;4.726;2022-10-22T05:43:13;6.37;;;2.60;;
8803;SDS011;4438;50.890;4.726;2022-10-22T05:45:39;8.13;;;2.77;;
8803;SDS011;4438;50.890;4.726;2022-10-22T05:48:06;5.20;;;2.40;;
8803;SDS011;4438;50.890;4.726;2022-10-22T05:50:37;5.93;;;2.60;;
8803;SDS011;4438;50.890;4.726;2022-10-22T05:53:04;5.70;;;2.33;;
8803;SDS011;4438;50.890;4.726;2022-10-22T05:55:34;4.60;;;2.50;;
8803;SDS011;4438;50.890;4.726;2022-10-22T05:58:04;6.17;;;2.53;;
8803;SDS011;4438;50.890;4.726;2022-10-22T06:00:31;6.43;;;2.80;;
8803;SDS011;4438;50.890;4.726;2022-10-22T06:02:58;5.90;;;2.63;;
8803;SDS011;4438;50.890;4.726;2022-10-22T06:05:24;6.13;;;2.40;;
8803;SDS011;4438;50.890;4.726;2022-10-22T06:07:50;7.67;;;3.23;;
8803;SDS011;4438;50.890;4.726;2022-10-22T06:10:17;4.00;;;2.20;;
8803;SDS011;4438;50.890;4.726;2022-10-22T06:12:47;6.60;;;2.40;;
8803;SDS011;4438;50.890;4.726;2022-10-22T06:15:15;5.67;;;2.23;;
8803;SDS011;4438;50.890;4.726;2022-10-22T06:17:42;6.43;;;2.57;;
8803;SDS011;4438;50.890;4.726;2022-10-22T06:20:09;6.97;;;2.70;;
8803;SDS011;4438;50.890;4.726;2022-10-22T06:22:35;4.53;;;2.27;;
8803;SDS011;4438;50.890;4.726;2022-10-22T06:25:01;5.47;;;2.27;;
8803;SDS011;4438;50.890;4.726;2022-10-22T06:27:27;7.40;;;2.23;;
8803;SDS011;4438;50.890;4.726;2022-10-22T06:29:53;6.00;;;2.40;;
8803;SDS011;4438;50.890;4.726;2022-10-22T06:32:19;5.17;;;2.10;;
8803;SDS011;4438;50.890;4.726;2022-10-22T06:34:45;3.93;;;2.27;;
8803;SDS011;4438;50.890;4.726;2022-10-22T06:37:12;6.93;;;2.40;;
8803;SDS011;4438;50.890;4.726;2022-10-22T06:39:39;7.50;;;2.40;;
8803;SDS011;4438;50.890;4.726;2022-10-22T06:42:05;5.93;;;2.30;;
8803;SDS011;4438;50.890;4.726;2022-10-22T06:44:31;5.37;;;2.40;;
8803;SDS011;4438;50.890;4.726;2022-10-22T06:46:58;4.73;;;2.20;;
8803;SDS011;4438;50.890;4.726;2022-10-22T06:49:24;6.60;;;2.47;;
8803;SDS011;4438;50.890;4.726;2022-10-22T06:51:50;4.67;;;2.37;;
8803;SDS011;4438;50.890;4.726;2022-10-22T06:54:17;8.97;;;2.57;;
8803;SDS011;4438;50.890;4.726;2022-10-22T06:56:43;6.27;;;2.23;;
8803;SDS011;4438;50.890;4.726;2022-10-22T06:59:09;3.63;;;2.30;;
8803;SDS011;4438;50.890;4.726;2022-10-22T07:01:35;5.83;;;2.17;;
8803;SDS011;4438;50.890;4.726;2022-10-22T07:04:02;3.67;;;2.17;;
8803;SDS011;4438;50.890;4.726;2022-10-22T07:06:28;5.27;;;2.20;;
8803;SDS011;4438;50.890;4.726;2022-10-22T07:08:55;4.43;;;2.10;;
8803;SDS011;4438;50.890;4.726;2022-10-22T07:11:22;6.07;;;2.40;;
8803;SDS011;4438;50.890;4.726;2022-10-22T07:13:48;4.80;;;1.90;;
8803;SDS011;4438;50.890;4.726;2022-10-22T07:16:15;4.17;;;2.47;;
8803;SDS011;4438;50.890;4.726;2022-10-22T07:18:42;5.70;;;2.30;;
8803;SDS011;4438;50.890;4.726;2022-10-22T07:21:08;7.83;;;2.50;;
8803;SDS011;4438;50.890;4.726;2022-10-22T07:23:35;4.63;;;2.03;;
8803;SDS011;4438;50.890;4.726;2022-10-22T07:26:02;5.17;;;1.93;;
8803;SDS011;4438;50.890;4.726;2022-10-22T07:28:29;5.97;;;2.60;;
8803;SDS011;4438;50.890;4.726;2022-10-22T07:30:56;7.10;;;2.40;;
8803;SDS011;4438;50.890;4.726;2022-10-22T07:33:22;6.70;;;1.97;;
8803;SDS011;4438;50.890;4.726;2022-10-22T07:35:48;5.97;;;2.53;;
8803;SDS011;4438;50.890;4.726;2022-10-22T07:38:14;5.43;;;2.50;;
8803;SDS011;4438;50.890;4.726;2022-10-22T07:40:41;6.43;;;2.33;;
8803;SDS011;4438;50.890;4.726;2022-10-22T07:43:07;4.70;;;2.13;;
8803;SDS011;4438;50.890;4.726;2022-10-22T07:45:33;7.27;;;2.53;;
8803;SDS011;4438;50.890;4.726;2022-10-22T07:47:59;6.37;;;2.43;;
8803;SDS011;4438;50.890;4.726;2022-10-22T07:50:26;5.03;;;2.13;;
8803;SDS011;4438;50.890;4.726;2022-10-22T07:52:52;5.30;;;2.00;;
8803;SDS011;4438;50.890;4.726;2022-10-22T07:55:18;4.83;;;2.00;;
8803;SDS011;4438;50.890;4.726;2022-10-22T07:57:44;4.53;;;1.93;;
8803;SDS011;4438;50.890;4.726;2022-10-22T08:00:11;4.67;;;1.80;;
8803;SDS011;4438;50.890;4.726;2022-10-22T08:02:37;3.23;;;2.20;;
8803;SDS011;4438;50.890;4.726;2022-10-22T08:05:03;4.53;;;2.07;;
8803;SDS011;4438;50.890;4.726;2022-10-22T08:07:29;3.80;;;1.83;;
8803;SDS011;4438;50.890;4.726;2022-10-22T08:09:55;5.13;;;2.30;;
8803;SDS011;4438;50.890;4.726;2022-10-22T08:12:21;4.97;;;2.00;;
8803;SDS011;4438;50.890;4.726;2022-10-22T08:14:47;4.17;;;1.97;;
8803;SDS011;4438;50.890;4.726;2022-10-22T08:17:14;4.70;;;1.70;;
8803;SDS011;4438;50.890;4.726;2022-10-22T08:19:40;4.20;;;1.80;;
8803;SDS011;4438;50.890;4.726;2022-10-22T08:22:06;5.20;;;2.00;;
8803;SDS011;4438;50.890;4.726;2022-10-22T08:24:32;4.60;;;2.03;;
8803;SDS011;4438;50.890;4.726;2022-10-22T08:26:58;4.13;;;1.60;;
8803;SDS011;4438;50.890;4.726;2022-10-22T08:29:24;4.63;;;1.80;;
8803;SDS011;4438;50.890;4.726;2022-10-22T08:31:51;4.90;;;2.13;;
8803;SDS011;4438;50.890;4.726;2022-10-22T08:34:17;5.73;;;2.10;;
8803;SDS011;4438;50.890;4.726;2022-10-22T08:36:44;5.50;;;2.40;;
8803;SDS011;4438;50.890;4.726;2022-10-22T08:39:10;4.17;;;1.83;;
8803;SDS011;4438;50.890;4.726;2022-10-22T08:42:21;5.90;;;2.07;;
8803;SDS011;4438;50.890;4.726;2022-10-22T08:49:28;3.63;;;2.27;;
8803;SDS011;4438;50.890;4.726;2022-10-22T08:51:58;4.77;;;2.03;;
8803;SDS011;4438;50.890;4.726;2022-10-22T08:57:02;4.77;;;2.00;;
8803;SDS011;4438;50.890;4.726;2022-10-22T08:59:46;5.73;;;2.20;;
8803;SDS011;4438;50.890;4.726;2022-10-22T09:03:01;5.17;;;2.30;;
8803;SDS011;4438;50.890;4.726;2022-10-22T09:05:05;4.30;;;1.90;;
8803;SDS011;4438;50.890;4.726;2022-10-22T09:07:39;6.03;;;2.17;;
8803;SDS011;4438;50.890;4.726;2022-10-22T09:10:07;6.17;;;1.90;;
8803;SDS011;4438;50.890;4.726;2022-10-22T09:12:34;4.97;;;2.10;;
8803;SDS011;4438;50.890;4.726;2022-10-22T09:15:00;5.97;;;2.50;;
8803;SDS011;4438;50.890;4.726;2022-10-22T09:17:33;5.87;;;2.50;;
8803;SDS011;4438;50.890;4.726;2022-10-22T09:20:21;4.60;;;2.27;;
8803;SDS011;4438;50.890;4.726;2022-10-22T09:25:30;5.53;;;2.80;;
8803;SDS011;4438;50.890;4.726;2022-10-22T09:27:56;5.40;;;2.13;;
8803;SDS011;4438;50.890;4.726;2022-10-22T09:30:24;5.43;;;2.20;;
8803;SDS011;4438;50.890;4.726;2022-10-22T09:32:54;4.50;;;1.90;;
8803;SDS011;4438;50.890;4.726;2022-10-22T09:35:24;6.77;;;2.60;;
8803;SDS011;4438;50.890;4.726;2022-10-22T09:37:52;4.93;;;2.57;;
8803;SDS011;4438;50.890;4.726;2022-10-22T09:40:18;5.03;;;2.27;;
8803;SDS011;4438;50.890;4.726;2022-10-22T09:42:46;6.97;;;2.37;;
8803;SDS011;4438;50.890;4.726;2022-10-22T09:45:23;5.67;;;2.20;;
8803;SDS011;4438;50.890;4.726;2022-10-22T09:47:50;3.70;;;2.40;;
8803;SDS011;4438;50.890;4.726;2022-10-22T09:55:30;5.50;;;2.30;;
8803;SDS011;4438;50.890;4.726;2022-10-22T09:57:57;8.13;;;2.93;;
8803;SDS011;4438;50.890;4.726;2022-10-22T10:00:24;4.67;;;2.30;;
8803;SDS011;4438;50.890;4.726;2022-10-22T10:02:58;6.17;;;2.60;;
8803;SDS011;4438;50.890;4.726;2022-10-22T10:05:29;7.43;;;2.87;;
8803;SDS011;4438;50.890;4.726;2022-10-22T10:07:55;6.57;;;2.40;;
8803;SDS011;4438;50.890;4.726;2022-10-22T10:15:50;6.27;;;2.57;;
8803;SDS011;4438;50.890;4.726;2022-10-22T10:21:10;5.17;;;2.40;;
8803;SDS011;4438;50.890;4.726;2022-10-22T10:23:47;5.10;;;2.57;;
8803;SDS011;4438;50.890;4.726;2022-10-22T10:26:22;4.57;;;2.33;;
8803;SDS011;4438;50.890;4.726;2022-10-22T10:28:53;6.07;;;2.43;;
8803;SDS011;4438;50.890;4.726;2022-10-22T10:44:08;6.30;;;1.93;;
8803;SDS011;4438;50.890;4.726;2022-10-22T10:46:54;6.57;;;2.10;;
8803;SDS011;4438;50.890;4.726;2022-10-22T10:49:29;6.03;;;2.20;;
8803;SDS011;4438;50.890;4.726;2022-10-22T11:00:00;4.27;;;2.47;;
8803;SDS011;4438;50.890;4.726;2022-10-22T11:08:02;5.33;;;2.30;;
8803;SDS011;4438;50.890;4.726;2022-10-22T11:10:38;4.00;;;2.20;;
8803;SDS011;4438;50.890;4.726;2022-10-22T11:13:19;6.30;;;2.57;;
8803;SDS011;4438;50.890;4.726;2022-10-22T11:15:50;4.80;;;2.40;;
8803;SDS011;4438;50.890;4.726;2022-10-22T11:18:19;5.00;;;2.17;;
8803;SDS011;4438;50.890;4.726;2022-10-22T11:26:06;5.17;;;2.17;;
8803;SDS011;4438;50.890;4.726;2022-10-22T11:28:43;5.50;;;2.70;;
8803;SDS011;4438;50.890;4.726;2022-10-22T11:31:14;6.10;;;2.20;;
8803;SDS011;4438;50.890;4.726;2022-10-22T11:33:44;5.13;;;2.33;;
8803;SDS011;4438;50.890;4.726;2022-10-22T11:36:11;5.53;;;2.03;;
8803;SDS011;4438;50.890;4.726;2022-10-22T11:38:37;5.63;;;2.00;;
8803;SDS011;4438;50.890;4.726;2022-10-22T11:41:13;5.93;;;2.20;;
8803;SDS011;4438;50.890;4.726;2022-10-22T11:43:51;5.43;;;2.20;;
8803;SDS011;4438;50.890;4.726;2022-10-22T11:48:44;5.20;;;2.30;;
8803;SDS011;4438;50.890;4.726;2022-10-22T11:51:30;7.30;;;2.60;;
8803;SDS011;4438;50.890;4.726;2022-10-22T11:53:57;6.93;;;3.30;;
8803;SDS011;4438;50.890;4.726;2022-10-22T11:56:26;4.60;;;2.07;;
8803;SDS011;4438;50.890;4.726;2022-10-22T11:58:53;4.40;;;2.30;;
8803;SDS011;4438;50.890;4.726;2022-10-22T12:01:24;5.73;;;2.20;;
8803;SDS011;4438;50.890;4.726;2022-10-22T12:04:38;5.67;;;2.57;;
8803;SDS011;4438;50.890;4.726;2022-10-22T12:06:54;5.97;;;2.20;;
8803;SDS011;4438;50.890;4.726;2022-10-22T12:09:21;4.53;;;2.10;;
8803;SDS011;4438;50.890;4.726;2022-10-22T12:11:49;3.33;;;2.00;;
8803;SDS011;4438;50.890;4.726;2022-10-22T12:14:25;4.10;;;2.10;;
8803;SDS011;4438;50.890;4.726;2022-10-22T12:19:36;7.00;;;4.47;;
8803;SDS011;4438;50.890;4.726;2022-10-22T12:24:35;3.93;;;1.93;;
8803;SDS011;4438;50.890;4.726;2022-10-22T12:27:02;4.40;;;2.10;;
8803;SDS011;4438;50.890;4.726;2022-10-22T12:29:30;5.40;;;1.83;;
8803;SDS011;4438;50.890;4.726;2022-10-22T12:32:00;4.30;;;1.97;;
8803;SDS011;4438;50.890;4.726;2022-10-22T12:34:26;3.23;;;1.53;;
8803;SDS011;4438;50.890;4.726;2022-10-22T12:36:53;6.03;;;1.90;;
8803;SDS011;4438;50.890;4.726;2022-10-22T12:39:20;4.53;;;1.70;;
8803;SDS011;4438;50.890;4.726;2022-10-22T12:41:47;4.67;;;1.97;;
8803;SDS011;4438;50.890;4.726;2022-10-22T12:44:14;3.40;;;1.63;;
8803;SDS011;4438;50.890;4.726;2022-10-22T12:46:40;3.70;;;1.70;;
8803;SDS011;4438;50.890;4.726;2022-10-22T12:49:12;5.00;;;1.80;;
8803;SDS011;4438;50.890;4.726;2022-10-22T12:51:39;4.33;;;1.80;;
8803;SDS011;4438;50.890;4.726;2022-10-22T12:54:11;4.10;;;1.83;;
8803;SDS011;4438;50.890;4.726;2022-10-22T12:56:38;3.83;;;1.80;;
8803;SDS011;4438;50.890;4.726;2022-10-22T12:59:18;4.57;;;1.97;;
8803;SDS011;4438;50.890;4.726;2022-10-22T13:01:45;3.00;;;1.73;;
8803;SDS011;4438;50.890;4.726;2022-10-22T13:06:43;3.80;;;1.70;;
8803;SDS011;4438;50.890;4.726;2022-10-22T13:09:15;3.53;;;1.87;;
8803;SDS011;4438;50.890;4.726;2022-10-22T13:11:55;2.60;;;1.60;;
8803;SDS011;4438;50.890;4.726;2022-10-22T13:14:27;5.57;;;1.77;;
8803;SDS011;4438;50.890;4.726;2022-10-22T13:19:37;6.17;;;1.90;;
8803;SDS011;4438;50.890;4.726;2022-10-22T13:22:03;3.78;;;2.17;;
8803;SDS011;4438;50.890;4.726;2022-10-22T13:24:29;3.50;;;2.20;;
8803;SDS011;4438;50.890;4.726;2022-10-22T13:26:55;3.00;;;1.63;;
8803;SDS011;4438;50.890;4.726;2022-10-22T13:29:22;4.50;;;2.20;;
8803;SDS011;4438;50.890;4.726;2022-10-22T13:31:49;2.97;;;1.55;;
8803;SDS011;4438;50.890;4.726;2022-10-22T13:34:17;2.40;;;1.58;;
8803;SDS011;4438;50.890;4.726;2022-10-22T13:36:44;2.72;;;1.70;;
8803;SDS011;4438;50.890;4.726;2022-10-22T13:39:21;3.53;;;1.70;;
8803;SDS011;4438;50.890;4.726;2022-10-22T13:41:47;4.47;;;1.55;;
8803;SDS011;4438;50.890;4.726;2022-10-22T13:44:17;3.58;;;1.73;;
8803;SDS011;4438;50.890;4.726;2022-10-22T13:46:44;3.97;;;1.67;;
8803;SDS011;4438;50.890;4.726;2022-10-22T13:49:17;4.00;;;1.55;;
8803;SDS011;4438;50.890;4.726;2022-10-22T13:51:44;3.97;;;1.85;;
8803;SDS011;4438;50.890;4.726;2022-10-22T13:54:15;4.30;;;2.00;;
8803;SDS011;4438;50.890;4.726;2022-10-22T13:56:41;5.47;;;1.80;;
8803;SDS011;4438;50.890;4.726;2022-10-22T13:59:08;3.53;;;1.47;;
8803;SDS011;4438;50.890;4.726;2022-10-22T14:01:34;4.57;;;1.60;;
8803;SDS011;4438;50.890;4.726;2022-10-22T14:04:02;4.23;;;1.83;;
8803;SDS011;4438;50.890;4.726;2022-10-22T14:06:29;2.42;;;1.40;;
8803;SDS011;4438;50.890;4.726;2022-10-22T14:08:56;4.80;;;1.80;;
8803;SDS011;4438;50.890;4.726;2022-10-22T14:11:22;3.63;;;1.80;;
8803;SDS011;4438;50.890;4.726;2022-10-22T14:13:49;4.03;;;1.90;;
8803;SDS011;4438;50.890;4.726;2022-10-22T14:16:16;3.80;;;2.00;;
8803;SDS011;4438;50.890;4.726;2022-10-22T14:18:43;2.60;;;1.80;;
8803;SDS011;4438;50.890;4.726;2022-10-22T14:21:10;3.77;;;1.77;;
8803;SDS011;4438;50.890;4.726;2022-10-22T14:23:38;3.67;;;1.70;;
8803;SDS011;4438;50.890;4.726;2022-10-22T14:26:05;5.37;;;1.90;;
8803;SDS011;4438;50.890;4.726;2022-10-22T14:28:32;3.83;;;1.70;;
8803;SDS011;4438;50.890;4.726;2022-10-22T14:30:59;4.03;;;1.77;;
8803;SDS011;4438;50.890;4.726;2022-10-22T14:33:26;3.77;;;1.80;;
8803;SDS011;4438;50.890;4.726;2022-10-22T14:35:53;2.77;;;1.60;;
8803;SDS011;4438;50.890;4.726;2022-10-22T14:38:19;3.37;;;1.77;;
8803;SDS011;4438;50.890;4.726;2022-10-22T14:40:45;4.73;;;1.67;;
8803;SDS011;4438;50.890;4.726;2022-10-22T14:43:17;4.60;;;1.70;;
8803;SDS011;4438;50.890;4.726;2022-10-22T14:45:45;2.43;;;1.50;;
8803;SDS011;4438;50.890;4.726;2022-10-22T14:48:11;5.20;;;1.80;;
8803;SDS011;4438;50.890;4.726;2022-10-22T14:50:37;4.13;;;1.67;;
8803;SDS011;4438;50.890;4.726;2022-10-22T14:53:03;3.63;;;1.70;;
8803;SDS011;4438;50.890;4.726;2022-10-22T14:55:29;2.80;;;1.77;;
8803;SDS011;4438;50.890;4.726;2022-10-22T14:57:55;4.47;;;1.80;;
8803;SDS011;4438;50.890;4.726;2022-10-22T15:00:22;3.90;;;1.80;;
8803;SDS011;4438;50.890;4.726;2022-10-22T15:02:48;3.27;;;1.77;;
8803;SDS011;4438;50.890;4.726;2022-10-22T15:05:14;2.97;;;1.50;;
8803;SDS011;4438;50.890;4.726;2022-10-22T15:07:41;5.27;;;1.90;;
8803;SDS011;4438;50.890;4.726;2022-10-22T15:10:08;4.93;;;1.80;;
8803;SDS011;4438;50.890;4.726;2022-10-22T15:12:34;3.83;;;1.73;;
8803;SDS011;4438;50.890;4.726;2022-10-22T15:15:00;5.17;;;2.83;;
8803;SDS011;4438;50.890;4.726;2022-10-22T15:17:27;3.80;;;1.80;;
8803;SDS011;4438;50.890;4.726;2022-10-22T15:19:53;3.47;;;1.70;;
8803;SDS011;4438;50.890;4.726;2022-10-22T15:22:20;4.37;;;1.80;;
8803;SDS011;4438;50.890;4.726;2022-10-22T15:24:47;3.20;;;1.80;;
8803;SDS011;4438;50.890;4.726;2022-10-22T15:27:13;5.43;;;1.90;;
8803;SDS011;4438;50.890;4.726;2022-10-22T15:29:40;3.17;;;1.80;;
8803;SDS011;4438;50.890;4.726;2022-10-22T15:32:07;3.37;;;1.73;;
8803;SDS011;4438;50.890;4.726;2022-10-22T15:34:37;5.23;;;2.10;;
8803;SDS011;4438;50.890;4.726;2022-10-22T15:37:04;3.23;;;1.97;;
8803;SDS011;4438;50.890;4.726;2022-10-22T15:39:30;3.47;;;1.90;;
8803;SDS011;4438;50.890;4.726;2022-10-22T15:41:57;3.67;;;2.03;;
8803;SDS011;4438;50.890;4.726;2022-10-22T15:44:27;3.40;;;1.73;;
8803;SDS011;4438;50.890;4.726;2022-10-22T15:46:54;4.40;;;1.80;;
8803;SDS011;4438;50.890;4.726;2022-10-22T15:49:21;4.20;;;2.00;;
8803;SDS011;4438;50.890;4.726;2022-10-22T15:51:47;4.20;;;2.40;;
8803;SDS011;4438;50.890;4.726;2022-10-22T15:54:15;6.63;;;2.40;;
8803;SDS011;4438;50.890;4.726;2022-10-22T15:56:41;4.57;;;2.13;;
8803;SDS011;4438;50.890;4.726;2022-10-22T15:59:12;5.13;;;2.00;;
8803;SDS011;4438;50.890;4.726;2022-10-22T16:01:38;2.93;;;1.90;;
8803;SDS011;4438;50.890;4.726;2022-10-22T16:04:04;14.37;;;3.53;;
8803;SDS011;4438;50.890;4.726;2022-10-22T16:06:32;7.03;;;2.47;;
8803;SDS011;4438;50.890;4.726;2022-10-22T16:08:59;6.00;;;2.40;;
8803;SDS011;4438;50.890;4.726;2022-10-22T16:11:26;2.93;;;2.10;;
8803;SDS011;4438;50.890;4.726;2022-10-22T16:13:55;34.50;;;6.37;;
8803;SDS011;4438;50.890;4.726;2022-10-22T16:16:22;9.97;;;3.30;;
8803;SDS011;4438;50.890;4.726;2022-10-22T16:18:49;15.73;;;4.47;;
8803;SDS011;4438;50.890;4.726;2022-10-22T16:21:16;13.47;;;4.30;;
8803;SDS011;4438;50.890;4.726;2022-10-22T16:23:42;8.27;;;3.33;;
8803;SDS011;4438;50.890;4.726;2022-10-22T16:26:08;7.20;;;3.30;;
8803;SDS011;4438;50.890;4.726;2022-10-22T16:28:34;6.40;;;2.80;;
8803;SDS011;4438;50.890;4.726;2022-10-22T16:31:01;6.37;;;3.03;;
8803;SDS011;4438;50.890;4.726;2022-10-22T16:33:27;5.23;;;2.50;;
8803;SDS011;4438;50.890;4.726;2022-10-22T16:35:53;9.47;;;3.40;;
8803;SDS011;4438;50.890;4.726;2022-10-22T16:38:20;6.80;;;2.87;;
8803;SDS011;4438;50.890;4.726;2022-10-22T16:40:46;8.30;;;3.20;;
8803;SDS011;4438;50.890;4.726;2022-10-22T16:43:12;6.93;;;3.10;;